Time;durP1;ratioP1;P1;durP2;ratioP2;P2;SDS_P1;SDS_P2;PMS_P1;PMS_P2;Temp;Humidity;BMP_temperature;BMP_pressure;BME280_temperature;BME280_humidity;BME280_pressure;Samples;Min_cycle;Max_cycle;Signal;HPM_P1;HPM_P2
2023/02/05 00:00:41;;;;;;;19.23;2.47;;;;;;;;;;5030681;28;20483;-73
2023/02/05 00:03:06;;;;;;;9.95;1.73;;;;;;;;;;5021558;28;20133;-72
2023/02/05 00:05:31;;;;;;;13.00;1.50;;;;;;;;;;5017869;28;20022;-73
2023/02/05 00:07:57;;;;;;;11.50;1.30;;;;;;;;;;5028417;28;20112;-73
2023/02/05 00:10:22;;;;;;;14.25;2.03;;;;;;;;;;5022594;28;20363;-73
2023/02/05 00:12:48;;;;;;;17.35;1.50;;;;;;;;;;5022661;28;20072;-72
2023/02/05 00:15:13;;;;;;;14.10;1.67;;;;;;;;;;5020153;28;20076;-72
2023/02/05 00:17:38;;;;;;;6.40;1.75;;;;;;;;;;5027598;28;20088;-73
2023/02/05 00:20:05;;;;;;;9.57;1.20;;;;;;;;;;5022054;28;20092;-74
2023/02/05 00:22:30;;;;;;;10.77;1.60;;;;;;;;;;5029630;28;20044;-72
2023/02/05 00:24:55;;;;;;;9.23;1.25;;;;;;;;;;5024294;28;20120;-73
2023/02/05 00:27:21;;;;;;;5.88;1.63;;;;;;;;;;5033341;28;20029;-72
2023/02/05 00:29:46;;;;;;;9.70;1.50;;;;;;;;;;5029032;28;20045;-72
2023/02/05 00:32:12;;;;;;;12.77;1.45;;;;;;;;;;5025333;28;20149;-72
2023/02/05 00:34:37;;;;;;;9.55;1.60;;;;;;;;;;5024412;28;20042;-73
2023/02/05 00:37:02;;;;;;;7.03;1.13;;;;;;;;;;5023502;28;20022;-73
2023/02/05 00:39:28;;;;;;;16.90;1.35;;;;;;;;;;5016586;28;20460;-72
2023/02/05 00:41:53;;;;;;;5.88;1.10;;;;;;;;;;5021433;28;20034;-72
2023/02/05 00:44:18;;;;;;;10.32;1.50;;;;;;;;;;5016969;28;20026;-72
2023/02/05 00:46:44;;;;;;;7.93;0.93;;;;;;;;;;5019061;28;20478;-72
2023/02/05 00:49:09;;;;;;;12.20;1.30;;;;;;;;;;5020789;28;20022;-73
2023/02/05 00:51:34;;;;;;;9.13;1.45;;;;;;;;;;5018910;28;20422;-73
2023/02/05 00:54:00;;;;;;;12.43;1.80;;;;;;;;;;5023661;28;20041;-72
2023/02/05 00:56:25;;;;;;;16.70;2.17;;;;;;;;;;5025166;28;20097;-72
2023/02/05 00:58:51;;;;;;;10.25;2.05;;;;;;;;;;5021546;28;20034;-72
2023/02/05 01:01:16;;;;;;;20.02;1.75;;;;;;;;;;5024393;28;20120;-73
2023/02/05 01:03:42;;;;;;;10.35;1.42;;;;;;;;;;5031564;28;20033;-73
2023/02/05 01:06:08;;;;;;;10.52;1.65;;;;;;;;;;5022099;28;20042;-72
2023/02/05 01:08:33;;;;;;;12.90;1.50;;;;;;;;;;5029827;28;20091;-72
2023/02/05 01:11:00;;;;;;;19.38;1.75;;;;;;;;;;5015384;28;20444;-72
2023/02/05 01:13:25;;;;;;;10.13;1.40;;;;;;;;;;5001561;28;20474;-74
2023/02/05 01:15:51;;;;;;;22.00;2.08;;;;;;;;;;5015875;28;20049;-72
2023/02/05 01:18:16;;;;;;;15.07;2.00;;;;;;;;;;5023829;28;20029;-72
2023/02/05 01:20:42;;;;;;;12.02;1.75;;;;;;;;;;5015859;28;20056;-73
2023/02/05 01:23:09;;;;;;;12.80;1.58;;;;;;;;;;5032114;28;20038;-72
2023/02/05 01:25:34;;;;;;;13.85;1.42;;;;;;;;;;5043318;28;20029;-72
2023/02/05 01:28:00;;;;;;;28.13;2.17;;;;;;;;;;5029574;28;20107;-73
2023/02/05 01:30:25;;;;;;;13.60;2.63;;;;;;;;;;5017655;28;20038;-73
2023/02/05 01:32:50;;;;;;;6.85;1.92;;;;;;;;;;5029119;28;20091;-72
2023/02/05 01:35:16;;;;;;;21.45;2.50;;;;;;;;;;5019137;28;20121;-72
2023/02/05 01:37:41;;;;;;;20.63;2.13;;;;;;;;;;5022842;28;20034;-73
2023/02/05 01:40:08;;;;;;;18.67;2.15;;;;;;;;;;5026502;28;20077;-74
2023/02/05 01:42:33;;;;;;;18.17;2.17;;;;;;;;;;5032896;28;20379;-72
2023/02/05 01:45:21;;;;;;;19.20;1.63;;;;;;;;;;5023330;28;20048;-73
2023/02/05 01:47:56;;;;;;;12.95;2.03;;;;;;;;;;5026640;28;20416;-73
2023/02/05 01:50:27;;;;;;;20.23;2.28;;;;;;;;;;5014637;28;20037;-72
2023/02/05 01:52:53;;;;;;;10.18;1.70;;;;;;;;;;5022007;28;20057;-72
2023/02/05 01:55:19;;;;;;;18.48;2.22;;;;;;;;;;5027233;28;20046;-72
2023/02/05 01:57:45;;;;;;;22.40;1.83;;;;;;;;;;5019035;28;20067;-74
2023/02/05 02:00:11;;;;;;;15.13;1.48;;;;;;;;;;5023126;28;20038;-73
2023/02/05 02:02:37;;;;;;;20.48;2.03;;;;;;;;;;5005786;28;20088;-73
2023/02/05 02:05:08;;;;;;;17.80;1.55;;;;;;;;;;5031661;28;20037;-72
2023/02/05 02:07:34;;;;;;;18.92;2.58;;;;;;;;;;5034516;28;20025;-72
2023/02/05 02:10:00;;;;;;;10.05;1.83;;;;;;;;;;5025769;28;20128;-72
2023/02/05 02:12:29;;;;;;;19.38;1.70;;;;;;;;;;5028736;28;20041;-72
2023/02/05 02:14:59;;;;;;;17.23;1.52;;;;;;;;;;5048946;28;20029;-72
2023/02/05 02:17:25;;;;;;;5.78;1.20;;;;;;;;;;5023042;28;20029;-72
2023/02/05 02:19:59;;;;;;;19.77;1.67;;;;;;;;;;5018212;28;20030;-72
2023/02/05 02:22:37;;;;;;;14.15;1.30;;;;;;;;;;5022004;28;20041;-73
2023/02/05 02:25:26;;;;;;;12.73;1.38;;;;;;;;;;5018589;28;20120;-72
2023/02/05 02:27:51;;;;;;;9.50;1.35;;;;;;;;;;5015120;28;20492;-73
2023/02/05 02:30:26;;;;;;;13.15;1.60;;;;;;;;;;5018883;28;20029;-72
2023/02/05 02:32:57;;;;;;;32.50;1.65;;;;;;;;;;5021105;28;20104;-72
2023/02/05 02:35:47;;;;;;;22.52;1.60;;;;;;;;;;5024122;28;20059;-72
2023/02/05 02:38:31;;;;;;;25.23;2.22;;;;;;;;;;5016739;28;20034;-74
2023/02/05 02:41:02;;;;;;;20.47;2.43;;;;;;;;;;5028551;28;20120;-72
2023/02/05 02:43:36;;;;;;;12.52;1.50;;;;;;;;;;5029384;28;20044;-73
2023/02/05 02:46:08;;;;;;;14.68;1.70;;;;;;;;;;5026193;28;20095;-72
2023/02/05 02:48:35;;;;;;;10.90;1.55;;;;;;;;;;5023753;28;20496;-72
2023/02/05 02:51:02;;;;;;;14.35;1.80;;;;;;;;;;5025214;28;20045;-72
2023/02/05 02:53:32;;;;;;;16.63;1.45;;;;;;;;;;5013491;28;20141;-73
2023/02/05 02:55:59;;;;;;;11.85;1.02;;;;;;;;;;5018897;28;20059;-72
2023/02/05 02:58:40;;;;;;;15.18;1.88;;;;;;;;;;5014746;28;20046;-73
2023/02/05 03:01:07;;;;;;;18.15;1.65;;;;;;;;;;5019241;28;20045;-72
2023/02/05 03:03:36;;;;;;;22.05;1.35;;;;;;;;;;5019144;28;20056;-73
2023/02/05 03:06:03;;;;;;;17.48;1.42;;;;;;;;;;5015038;28;20437;-72
2023/02/05 03:08:45;;;;;;;43.90;2.03;;;;;;;;;;5019423;28;20022;-73
2023/02/05 03:11:12;;;;;;;15.65;1.20;;;;;;;;;;5014096;28;20117;-72
2023/02/05 03:13:38;;;;;;;11.10;1.77;;;;;;;;;;5022084;28;20036;-72
2023/02/05 03:16:04;;;;;;;14.30;1.42;;;;;;;;;;5003612;28;20038;-74
2023/02/05 03:18:30;;;;;;;25.73;2.33;;;;;;;;;;5025378;28;20037;-72
2023/02/05 03:20:59;;;;;;;14.63;1.67;;;;;;;;;;5013866;28;20079;-72
2023/02/05 03:23:28;;;;;;;11.88;1.27;;;;;;;;;;5020252;28;20030;-72
2023/02/05 03:25:54;;;;;;;14.35;1.88;;;;;;;;;;5017175;28;20034;-72
2023/02/05 03:28:20;;;;;;;21.98;1.60;;;;;;;;;;5023824;28;20413;-72
2023/02/05 03:31:00;;;;;;;10.10;1.35;;;;;;;;;;5015259;28;20034;-72
2023/02/05 03:33:34;;;;;;;16.88;1.70;;;;;;;;;;5024106;28;20042;-72
2023/02/05 03:36:09;;;;;;;;;;;;;;;;;;5020833;28;20033;-72
2023/02/05 03:39:13;;;;;;;8.75;1.02;;;;;;;;;;5014323;28;19917;-74
2023/02/05 03:41:54;;;;;;;10.60;2.03;;;;;;;;;;5014456;28;20049;-72
2023/02/05 03:44:57;;;;;;;18.17;1.90;;;;;;;;;;5003095;28;20038;-72
2023/02/05 03:47:40;;;;;;;34.08;2.63;;;;;;;;;;5014334;28;20030;-72
2023/02/05 03:50:31;;;;;;;13.70;1.65;;;;;;;;;;5028254;28;20056;-72
2023/02/05 03:53:22;;;;;;;5.63;1.80;;;;;;;;;;4999420;28;20120;-71
2023/02/05 03:55:52;;;;;;;28.10;3.13;;;;;;;;;;4991360;28;20054;-72
2023/02/05 03:58:30;;;;;;;41.70;3.80;;;;;;;;;;5016793;28;20515;-72
2023/02/05 04:00:56;;;;;;;21.83;2.53;;;;;;;;;;5021701;28;20041;-72
2023/02/05 04:03:22;;;;;;;17.17;3.05;;;;;;;;;;5014241;28;20037;-72
2023/02/05 04:05:47;;;;;;;11.85;1.90;;;;;;;;;;5014265;28;20046;-74
2023/02/05 04:08:12;;;;;;;15.48;2.65;;;;;;;;;;5018105;28;20041;-72
2023/02/05 04:10:38;;;;;;;6.07;1.60;;;;;;;;;;5014222;28;20030;-72
2023/02/05 04:13:03;;;;;;;22.85;2.00;;;;;;;;;;5014078;28;20072;-72
2023/02/05 04:15:29;;;;;;;8.23;1.58;;;;;;;;;;5023451;28;20045;-72
2023/02/05 04:17:56;;;;;;;4.07;1.00;;;;;;;;;;5029836;28;20068;-72
2023/02/05 04:20:22;;;;;;;14.35;1.63;;;;;;;;;;5026286;28;20034;-72
2023/02/05 04:22:47;;;;;;;15.45;1.80;;;;;;;;;;5039875;28;20077;-72
2023/02/05 04:25:12;;;;;;;21.85;2.30;;;;;;;;;;5016491;28;20034;-72
2023/02/05 04:27:38;;;;;;;17.92;2.47;;;;;;;;;;5020089;28;20026;-72
2023/02/05 04:30:05;;;;;;;14.30;1.88;;;;;;;;;;5017944;28;20081;-72
2023/02/05 04:32:31;;;;;;;17.25;1.85;;;;;;;;;;5012605;28;20045;-72
2023/02/05 04:34:56;;;;;;;14.52;1.42;;;;;;;;;;5020422;28;20037;-71
2023/02/05 04:37:23;;;;;;;16.13;1.80;;;;;;;;;;5025875;28;20033;-72
2023/02/05 04:39:49;;;;;;;18.90;1.42;;;;;;;;;;5025849;28;20029;-72
2023/02/05 04:42:14;;;;;;;27.23;2.00;;;;;;;;;;5022845;28;20045;-72
2023/02/05 04:44:40;;;;;;;15.18;2.53;;;;;;;;;;5018025;28;20041;-72
2023/02/05 04:47:05;;;;;;;12.95;2.47;;;;;;;;;;5026702;28;20030;-72
2023/02/05 04:49:32;;;;;;;22.98;2.88;;;;;;;;;;5021881;28;20538;-71
2023/02/05 04:51:57;;;;;;;12.80;1.33;;;;;;;;;;5021380;28;20547;-71
2023/02/05 04:54:22;;;;;;;15.65;1.88;;;;;;;;;;5031941;28;20113;-71
2023/02/05 04:56:48;;;;;;;9.88;1.50;;;;;;;;;;5023891;28;20029;-72
2023/02/05 04:59:13;;;;;;;18.15;1.73;;;;;;;;;;5021066;28;20040;-72
2023/02/05 05:01:39;;;;;;;18.75;1.85;;;;;;;;;;5026387;28;20034;-72
2023/02/05 05:04:04;;;;;;;18.50;1.65;;;;;;;;;;5027445;28;20072;-72
2023/02/05 05:06:30;;;;;;;23.25;1.98;;;;;;;;;;5028185;28;20103;-72
2023/02/05 05:08:56;;;;;;;26.60;2.10;;;;;;;;;;5017064;28;20030;-71
2023/02/05 05:11:21;;;;;;;14.45;2.15;;;;;;;;;;5027249;28;20132;-71
2023/02/05 05:13:48;;;;;;;16.00;2.22;;;;;;;;;;5029775;28;20076;-71
2023/02/05 05:16:14;;;;;;;23.17;1.95;;;;;;;;;;5016834;28;20173;-72
2023/02/05 05:18:39;;;;;;;15.70;1.90;;;;;;;;;;5024779;28;20480;-72
2023/02/05 05:21:06;;;;;;;11.68;2.17;;;;;;;;;;5020984;28;20038;-71
2023/02/05 05:23:31;;;;;;;25.02;2.20;;;;;;;;;;5018331;28;20057;-72
2023/02/05 05:25:57;;;;;;;15.65;2.15;;;;;;;;;;5015638;28;20061;-72
2023/02/05 05:28:23;;;;;;;4.45;1.20;;;;;;;;;;5026832;28;20038;-75
2023/02/05 05:30:48;;;;;;;10.23;1.30;;;;;;;;;;5016607;28;20037;-72
2023/02/05 05:33:14;;;;;;;8.55;1.63;;;;;;;;;;5029831;28;20034;-73
2023/02/05 05:35:40;;;;;;;5.55;1.30;;;;;;;;;;5019471;28;20037;-72
2023/02/05 05:38:05;;;;;;;13.75;2.35;;;;;;;;;;5018466;28;20509;-71
2023/02/05 05:46:02;;;;;;;13.95;1.75;;;;;;;;;;5006323;28;20156;-71
2023/02/05 05:48:28;;;;;;;6.65;1.63;;;;;;;;;;5023822;28;20045;-72
2023/02/05 05:50:54;;;;;;;3.78;1.13;;;;;;;;;;5019741;28;20389;-72
2023/02/05 05:53:19;;;;;;;7.22;1.65;;;;;;;;;;5017436;28;20132;-72
2023/02/05 05:55:45;;;;;;;19.95;2.00;;;;;;;;;;5023452;28;20052;-71
2023/02/05 05:58:10;;;;;;;17.20;1.98;;;;;;;;;;5016971;28;20128;-72
2023/02/05 06:00:37;;;;;;;10.30;1.35;;;;;;;;;;5022851;28;20104;-71
2023/02/05 06:03:03;;;;;;;9.60;2.20;;;;;;;;;;5033410;28;20037;-72
2023/02/05 06:05:28;;;;;;;13.18;1.58;;;;;;;;;;5014552;28;20037;-72
2023/02/05 06:07:54;;;;;;;8.95;1.60;;;;;;;;;;5029492;28;20026;-72
2023/02/05 06:10:19;;;;;;;11.93;1.38;;;;;;;;;;5019287;28;20042;-72
2023/02/05 06:12:45;;;;;;;13.50;2.13;;;;;;;;;;5016888;28;20469;-72
2023/02/05 06:15:10;;;;;;;28.27;2.00;;;;;;;;;;5026352;28;20037;-72
2023/02/05 06:17:36;;;;;;;23.70;2.25;;;;;;;;;;5021268;28;20037;-71
2023/02/05 06:20:01;;;;;;;10.80;1.48;;;;;;;;;;5028841;28;20041;-71
2023/02/05 06:22:27;;;;;;;12.57;1.50;;;;;;;;;;5029919;28;20026;-72
2023/02/05 06:24:52;;;;;;;10.02;1.70;;;;;;;;;;5018874;28;20088;-71
2023/02/05 06:27:17;;;;;;;22.65;2.05;;;;;;;;;;5019403;28;20056;-72
2023/02/05 06:29:43;;;;;;;65.45;7.75;;;;;;;;;;5019757;28;20140;-72
2023/02/05 06:32:08;;;;;;;21.55;2.33;;;;;;;;;;5029366;28;20095;-72
2023/02/05 06:34:33;;;;;;;68.78;7.15;;;;;;;;;;5017641;28;20049;-71
2023/02/05 06:36:59;;;;;;;19.13;1.58;;;;;;;;;;5027236;28;20444;-72
2023/02/05 06:39:24;;;;;;;17.98;1.48;;;;;;;;;;5018694;28;20034;-72
2023/02/05 06:41:50;;;;;;;20.05;2.20;;;;;;;;;;5020433;28;20041;-71
2023/02/05 06:44:15;;;;;;;32.13;4.28;;;;;;;;;;5024205;28;20065;-73
2023/02/05 06:46:41;;;;;;;50.55;5.75;;;;;;;;;;5026584;28;20044;-72
2023/02/05 06:49:06;;;;;;;30.38;5.30;;;;;;;;;;5027517;28;20505;-72
2023/02/05 06:51:31;;;;;;;39.67;6.07;;;;;;;;;;5025458;28;20030;-72
2023/02/05 06:53:59;;;;;;;43.97;4.25;;;;;;;;;;5024865;28;20042;-72
2023/02/05 06:56:24;;;;;;;25.80;2.45;;;;;;;;;;5025562;28;20038;-72
2023/02/05 06:58:49;;;;;;;16.13;1.50;;;;;;;;;;5021911;28;20450;-71
2023/02/05 07:01:15;;;;;;;23.88;3.05;;;;;;;;;;5020973;28;20040;-71
2023/02/05 07:03:40;;;;;;;12.25;2.03;;;;;;;;;;5026230;28;20474;-71
2023/02/05 07:06:06;;;;;;;11.93;1.95;;;;;;;;;;5023829;28;20037;-71
2023/02/05 07:08:32;;;;;;;28.75;2.22;;;;;;;;;;5026283;28;20446;-72
2023/02/05 07:10:58;;;;;;;27.27;2.60;;;;;;;;;;5022209;28;20099;-71
2023/02/05 07:13:23;;;;;;;27.02;2.97;;;;;;;;;;5028669;28;20466;-71
2023/02/05 07:15:48;;;;;;;11.82;2.22;;;;;;;;;;5022496;28;20053;-71
2023/02/05 07:18:14;;;;;;;25.25;3.65;;;;;;;;;;5030504;28;20046;-72
2023/02/05 07:20:39;;;;;;;14.35;2.83;;;;;;;;;;5018594;28;20434;-71
2023/02/05 07:23:05;;;;;;;9.57;1.67;;;;;;;;;;5016504;28;20044;-71
2023/02/05 07:25:36;;;;;;;8.38;1.05;;;;;;;;;;5024009;28;20436;-72
2023/02/05 07:28:06;;;;;;;19.30;2.10;;;;;;;;;;5018842;28;20056;-71
2023/02/05 07:30:33;;;;;;;18.20;2.00;;;;;;;;;;5028993;28;20045;-71
2023/02/05 07:32:59;;;;;;;21.08;1.67;;;;;;;;;;5029161;28;20477;-71
2023/02/05 07:35:25;;;;;;;29.50;3.00;;;;;;;;;;5025756;28;20034;-71
2023/02/05 07:37:50;;;;;;;11.77;1.83;;;;;;;;;;5029320;28;20496;-71
2023/02/05 07:40:16;;;;;;;15.35;2.40;;;;;;;;;;5018389;28;20026;-71
2023/02/05 07:42:41;;;;;;;10.75;1.48;;;;;;;;;;5021691;28;20044;-71
2023/02/05 07:45:07;;;;;;;12.23;1.23;;;;;;;;;;5015233;28;20034;-72
2023/02/05 07:47:32;;;;;;;8.23;1.67;;;;;;;;;;5014067;28;20105;-71
2023/02/05 07:49:58;;;;;;;20.05;2.40;;;;;;;;;;5016474;28;20433;-71
2023/02/05 07:52:23;;;;;;;12.65;1.58;;;;;;;;;;5016392;28;20078;-71
2023/02/05 07:54:49;;;;;;;8.88;1.77;;;;;;;;;;5015188;28;20044;-71
2023/02/05 07:57:14;;;;;;;11.60;2.28;;;;;;;;;;5023382;28;20033;-71
2023/02/05 07:59:40;;;;;;;15.85;1.60;;;;;;;;;;5024304;28;20045;-72
2023/02/05 08:02:06;;;;;;;20.42;1.95;;;;;;;;;;5021354;28;20044;-71
2023/02/05 08:04:32;;;;;;;18.60;1.85;;;;;;;;;;5014031;28;20061;-71
2023/02/05 08:06:58;;;;;;;17.17;2.22;;;;;;;;;;5022979;28;20048;-72
2023/02/05 08:09:24;;;;;;;10.15;1.63;;;;;;;;;;5026252;28;20428;-72
2023/02/05 08:11:49;;;;;;;6.75;1.17;;;;;;;;;;5024772;28;20060;-72
2023/02/05 08:14:14;;;;;;;12.30;1.90;;;;;;;;;;5024306;28;20034;-72
2023/02/05 08:16:40;;;;;;;25.33;2.92;;;;;;;;;;5021483;28;20018;-71
2023/02/05 08:19:06;;;;;;;12.07;1.58;;;;;;;;;;5025644;28;20064;-72
2023/02/05 08:21:31;;;;;;;8.85;1.63;;;;;;;;;;5019608;28;20042;-72
2023/02/05 08:23:57;;;;;;;11.45;2.00;;;;;;;;;;5029191;28;20092;-72
2023/02/05 08:26:23;;;;;;;11.50;1.67;;;;;;;;;;5020145;28;20040;-72
2023/02/05 08:28:49;;;;;;;11.50;2.20;;;;;;;;;;5019638;28;20041;-72
2023/02/05 08:31:17;;;;;;;20.55;1.95;;;;;;;;;;5019157;28;20026;-72
2023/02/05 08:33:42;;;;;;;7.55;1.10;;;;;;;;;;5022096;28;20025;-71
2023/02/05 08:36:08;;;;;;;17.15;2.10;;;;;;;;;;5025569;28;20469;-71
2023/02/05 08:38:33;;;;;;;19.52;2.97;;;;;;;;;;5016490;28;20029;-71
2023/02/05 08:41:11;;;;;;;16.10;1.80;;;;;;;;;;5023660;28;20465;-71
2023/02/05 08:43:40;;;;;;;11.38;2.42;;;;;;;;;;5028491;28;20041;-71
2023/02/05 08:46:06;;;;;;;13.05;1.95;;;;;;;;;;5024696;28;20022;-72
2023/02/05 08:48:31;;;;;;;15.98;2.10;;;;;;;;;;5044675;28;20401;-71
2023/02/05 08:50:57;;;;;;;13.70;1.90;;;;;;;;;;5025115;28;20038;-72
2023/02/05 08:53:22;;;;;;;13.60;2.53;;;;;;;;;;5030174;28;20049;-72
2023/02/05 08:55:59;;;;;;;10.40;2.00;;;;;;;;;;5017843;28;20452;-72
2023/02/05 08:58:25;;;;;;;15.23;2.30;;;;;;;;;;5023721;28;20032;-72
2023/02/05 09:00:51;;;;;;;27.45;3.25;;;;;;;;;;5023654;28;20037;-73
2023/02/05 09:03:16;;;;;;;10.60;2.50;;;;;;;;;;5027866;28;20026;-73
2023/02/05 09:05:41;;;;;;;8.98;2.42;;;;;;;;;;5024225;28;20044;-73
2023/02/05 09:08:07;;;;;;;15.25;2.80;;;;;;;;;;5024769;28;20076;-72
2023/02/05 09:10:32;;;;;;;21.55;3.15;;;;;;;;;;5025879;28;20035;-72
2023/02/05 09:12:58;;;;;;;10.30;3.08;;;;;;;;;;5020548;28;20022;-73
2023/02/05 09:15:23;;;;;;;26.98;2.95;;;;;;;;;;5019309;28;20132;-73
2023/02/05 09:17:48;;;;;;;65.03;5.35;;;;;;;;;;5026237;28;20385;-72
2023/02/05 09:20:14;;;;;;;41.20;3.58;;;;;;;;;;5027477;28;20036;-72
2023/02/05 09:22:39;;;;;;;81.78;5.10;;;;;;;;;;5028445;28;20378;-73
2023/02/05 09:25:05;;;;;;;123.78;8.57;;;;;;;;;;5031077;28;20469;-72
2023/02/05 09:27:31;;;;;;;99.55;8.13;;;;;;;;;;5031517;28;20034;-72
2023/02/05 09:29:56;;;;;;;23.42;5.75;;;;;;;;;;5029214;28;20443;-72
2023/02/05 09:32:22;;;;;;;25.48;6.18;;;;;;;;;;5024886;28;20042;-74
2023/02/05 09:34:48;;;;;;;79.10;6.90;;;;;;;;;;5032816;28;20038;-73
2023/02/05 09:37:14;;;;;;;62.10;6.07;;;;;;;;;;5023054;28;20045;-72
2023/02/05 09:39:40;;;;;;;22.98;5.28;;;;;;;;;;5025796;28;20071;-72
2023/02/05 09:42:09;;;;;;;23.88;4.78;;;;;;;;;;5017908;28;20026;-72
2023/02/05 09:44:56;;;;;;;16.63;3.97;;;;;;;;;;5021184;28;20063;-72
2023/02/05 09:47:37;;;;;;;18.17;3.85;;;;;;;;;;5027603;28;20029;-72
2023/02/05 09:50:28;;;;;;;14.02;3.33;;;;;;;;;;5044472;28;20042;-73
2023/02/05 09:52:59;;;;;;;25.15;7.63;;;;;;;;;;5014890;28;20510;-72
2023/02/05 09:55:38;;;;;;;14.18;2.90;;;;;;;;;;5026494;28;20478;-73
2023/02/05 09:58:14;;;;;;;14.27;3.25;;;;;;;;;;5015354;28;20121;-72
2023/02/05 10:01:03;;;;;;;12.30;3.67;;;;;;;;;;5021160;28;20091;-73
2023/02/05 10:03:53;;;;;;;9.63;3.03;;;;;;;;;;5001360;28;20477;-73
2023/02/05 10:06:20;;;;;;;16.42;4.35;;;;;;;;;;5015765;28;20486;-72
2023/02/05 10:08:57;;;;;;;20.83;5.90;;;;;;;;;;5034057;28;20108;-73
2023/02/05 10:11:27;;;;;;;21.90;6.10;;;;;;;;;;5021689;28;20045;-73
2023/02/05 10:14:22;;;;;;;16.40;4.85;;;;;;;;;;5016721;28;20413;-72
2023/02/05 10:17:28;;;;;;;12.10;2.70;;;;;;;;;;4995341;28;20394;-73
2023/02/05 10:20:16;;;;;;;8.02;1.77;;;;;;;;;;5015744;28;20030;-72
2023/02/05 10:23:15;;;;;;;13.77;2.72;;;;;;;;;;5020917;28;20405;-72
2023/02/05 10:25:57;;;;;;;9.65;1.88;;;;;;;;;;5019741;28;20044;-72
2023/02/05 10:28:47;;;;;;;8.77;1.70;;;;;;;;;;5009647;28;20041;-72
2023/02/05 10:31:16;;;;;;;9.40;1.60;;;;;;;;;;5020999;28;20545;-72
2023/02/05 10:33:54;;;;;;;14.27;1.70;;;;;;;;;;5026563;28;20052;-73
2023/02/05 10:36:23;;;;;;;8.85;1.80;;;;;;;;;;5023871;28;20473;-72
2023/02/05 10:38:51;;;;;;;7.65;1.63;;;;;;;;;;5025343;28;20038;-72
2023/02/05 10:41:19;;;;;;;12.13;2.75;;;;;;;;;;5041939;28;20026;-72
2023/02/05 10:43:52;;;;;;;13.25;1.83;;;;;;;;;;5021239;28;20041;-73
2023/02/05 10:46:18;;;;;;;8.55;1.60;;;;;;;;;;5019959;28;20041;-72
2023/02/05 10:48:46;;;;;;;7.18;1.20;;;;;;;;;;5022508;28;20087;-72
2023/02/05 10:51:36;;;;;;;6.85;1.38;;;;;;;;;;5030226;28;20030;-72
2023/02/05 10:54:01;;;;;;;6.30;1.60;;;;;;;;;;5020867;28;20104;-72
2023/02/05 10:56:27;;;;;;;7.78;1.20;;;;;;;;;;5026686;28;20465;-72
2023/02/05 10:58:53;;;;;;;9.63;1.63;;;;;;;;;;5021302;28;20524;-72
2023/02/05 11:01:21;;;;;;;12.82;1.60;;;;;;;;;;5021388;28;20124;-72
2023/02/05 11:03:55;;;;;;;7.88;1.15;;;;;;;;;;5016176;28;20026;-72
2023/02/05 11:06:23;;;;;;;5.28;0.88;;;;;;;;;;5021628;28;20037;-73
2023/02/05 11:08:48;;;;;;;13.63;1.92;;;;;;;;;;5024896;28;20072;-72
2023/02/05 11:11:23;;;;;;;10.07;1.17;;;;;;;;;;5017672;28;20421;-72
2023/02/05 11:14:00;;;;;;;11.35;1.55;;;;;;;;;;5016777;28;20120;-72
2023/02/05 11:16:43;;;;;;;8.50;1.08;;;;;;;;;;5047772;28;20047;-72
2023/02/05 11:19:27;;;;;;;6.32;1.25;;;;;;;;;;5000643;28;20084;-72
2023/02/05 11:22:00;;;;;;;;;;;;;;;;;;5019246;28;20509;-72
2023/02/05 11:24:34;;;;;;;5.38;1.30;;;;;;;;;;5018741;28;19975;-72
2023/02/05 11:27:15;;;;;;;4.25;1.02;;;;;;;;;;5015669;28;20508;-72
2023/02/05 11:29:41;;;;;;;5.88;1.20;;;;;;;;;;5027703;28;20397;-72
2023/02/05 11:32:37;;;;;;;9.38;1.15;;;;;;;;;;5047631;28;20037;-72
2023/02/05 11:35:15;;;;;;;8.82;1.50;;;;;;;;;;5025436;28;20048;-72
2023/02/05 11:37:41;;;;;;;2.85;1.08;;;;;;;;;;5020558;28;20034;-72
2023/02/05 11:40:20;;;;;;;3.42;1.15;;;;;;;;;;5012429;28;20048;-72
2023/02/05 11:42:57;;;;;;;4.40;1.02;;;;;;;;;;5013579;28;20132;-73
2023/02/05 11:45:24;;;;;;;5.78;1.30;;;;;;;;;;5025914;28;20038;-73
2023/02/05 11:47:50;;;;;;;8.55;1.70;;;;;;;;;;5031974;28;20038;-72
2023/02/05 11:50:27;;;;;;;8.90;1.27;;;;;;;;;;5032412;28;20041;-72
2023/02/05 11:53:05;;;;;;;10.50;1.73;;;;;;;;;;5049046;28;20053;-72
2023/02/05 11:55:32;;;;;;;9.20;1.30;;;;;;;;;;5030039;28;20470;-72
2023/02/05 11:58:00;;;;;;;7.28;1.15;;;;;;;;;;5017899;28;20486;-72
2023/02/05 12:00:26;;;;;;;7.60;1.52;;;;;;;;;;5020578;28;20109;-73
2023/02/05 12:03:30;;;;;;;6.45;1.40;;;;;;;;;;5020886;28;20122;-72
2023/02/05 12:06:17;;;;;;;13.65;1.58;;;;;;;;;;4990134;28;20115;-72
2023/02/05 12:08:50;;;;;;;11.77;1.83;;;;;;;;;;5036182;28;20034;-72
2023/02/05 12:11:18;;;;;;;5.53;1.27;;;;;;;;;;5026016;28;20057;-72
2023/02/05 12:13:56;;;;;;;9.23;1.35;;;;;;;;;;5019539;28;20359;-73
2023/02/05 12:16:47;;;;;;;11.43;1.52;;;;;;;;;;5031145;28;20404;-72
2023/02/05 12:19:51;;;;;;;7.65;0.95;;;;;;;;;;5022388;28;20030;-72
2023/02/05 12:22:30;;;;;;;9.95;1.83;;;;;;;;;;4963556;28;20106;-72
2023/02/05 12:25:02;;;;;;;4.40;0.98;;;;;;;;;;5005357;28;20033;-72
2023/02/05 12:27:39;;;;;;;7.20;1.50;;;;;;;;;;5020993;28;20061;-73
2023/02/05 12:30:32;;;;;;;16.95;1.85;;;;;;;;;;5033968;28;20072;-72
2023/02/05 12:33:30;;;;;;;5.28;1.60;;;;;;;;;;5026713;28;20497;-72
2023/02/05 12:36:16;;;;;;;8.65;1.40;;;;;;;;;;5016777;28;20030;-72
2023/02/05 12:39:13;;;;;;;8.82;1.90;;;;;;;;;;5022137;28;20500;-72
2023/02/05 12:41:49;;;;;;;9.18;1.58;;;;;;;;;;5030217;28;20026;-72
2023/02/05 12:44:32;;;;;;;8.63;1.48;;;;;;;;;;5025962;28;20084;-72
2023/02/05 12:47:19;;;;;;;12.57;1.67;;;;;;;;;;5019924;28;20527;-73
2023/02/05 12:50:05;;;;;;;10.75;2.28;;;;;;;;;;5020126;28;20462;-72
2023/02/05 12:53:04;;;;;;;10.75;2.05;;;;;;;;;;5023559;28;20528;-73
2023/02/05 12:55:42;;;;;;;7.68;1.88;;;;;;;;;;5012540;28;20539;-72
2023/02/05 12:58:09;;;;;;;11.73;1.80;;;;;;;;;;5017118;28;20370;-72
2023/02/05 13:00:48;;;;;;;4.00;1.70;;;;;;;;;;5017601;28;20042;-72
2023/02/05 13:03:20;;;;;;;6.00;1.52;;;;;;;;;;5018789;28;20072;-72
2023/02/05 13:05:59;;;;;;;11.18;1.88;;;;;;;;;;5024427;28;20116;-73
2023/02/05 13:08:41;;;;;;;8.25;1.85;;;;;;;;;;5022126;28;20521;-72
2023/02/05 13:11:19;;;;;;;6.63;1.33;;;;;;;;;;5016039;28;20042;-72
2023/02/05 13:13:59;;;;;;;13.82;1.65;;;;;;;;;;5011110;28;20128;-73
2023/02/05 13:16:32;;;;;;;5.13;1.40;;;;;;;;;;5015023;28;20119;-72
2023/02/05 13:19:08;;;;;;;7.20;1.70;;;;;;;;;;5029871;28;20040;-72
2023/02/05 13:30:14;;;;;;;6.68;1.73;;;;;;;;;;5022071;28;20040;-72
2023/02/05 13:32:41;;;;;;;9.70;1.92;;;;;;;;;;5025990;28;20501;-72
2023/02/05 13:35:07;;;;;;;5.95;1.67;;;;;;;;;;5032459;28;20461;-72
2023/02/05 13:37:51;;;;;;;11.68;1.52;;;;;;;;;;5021017;28;20108;-73
2023/02/05 13:40:41;;;;;;;6.15;1.40;;;;;;;;;;5015308;28;20069;-72
2023/02/05 13:43:44;;;;;;;11.98;1.48;;;;;;;;;;5022188;28;20030;-72
2023/02/05 13:46:22;;;;;;;5.60;1.38;;;;;;;;;;5018803;28;20049;-72
2023/02/05 13:49:03;;;;;;;7.00;1.45;;;;;;;;;;5016703;28;20088;-73
2023/02/05 13:51:53;;;;;;;4.72;1.30;;;;;;;;;;5019325;28;20038;-74
2023/02/05 13:54:37;;;;;;;6.55;1.27;;;;;;;;;;5020974;28;20029;-72
2023/02/05 13:57:36;;;;;;;5.88;1.58;;;;;;;;;;5025795;28;20069;-72
2023/02/05 14:00:03;;;;;;;4.65;1.25;;;;;;;;;;5027392;28;20097;-72
2023/02/05 14:02:36;;;;;;;11.38;1.50;;;;;;;;;;5031357;28;20041;-73
2023/02/05 14:05:02;;;;;;;5.00;1.58;;;;;;;;;;5028735;28;20112;-72
2023/02/05 14:07:34;;;;;;;9.68;1.90;;;;;;;;;;5030957;28;20132;-72
2023/02/05 14:10:01;;;;;;;6.18;1.50;;;;;;;;;;5009462;28;20477;-72
2023/02/05 14:12:36;;;;;;;12.88;1.60;;;;;;;;;;5027145;28;20436;-72
2023/02/05 14:15:14;;;;;;;7.90;2.13;;;;;;;;;;5031005;28;20038;-72
2023/02/05 14:17:39;;;;;;;9.32;1.95;;;;;;;;;;5027211;28;20117;-72
2023/02/05 14:20:24;;;;;;;6.32;1.48;;;;;;;;;;5023345;28;20549;-72
2023/02/05 14:22:54;;;;;;;9.32;1.77;;;;;;;;;;5022591;28;20033;-72
2023/02/05 14:25:38;;;;;;;6.75;1.50;;;;;;;;;;5019196;28;20080;-72
2023/02/05 14:28:15;;;;;;;7.60;1.90;;;;;;;;;;5021410;28;20056;-73
2023/02/05 14:30:45;;;;;;;7.45;1.65;;;;;;;;;;5020859;28;20489;-72
2023/02/05 14:33:37;;;;;;;5.13;1.15;;;;;;;;;;5022550;28;20033;-72
2023/02/05 14:36:24;;;;;;;9.75;1.35;;;;;;;;;;5016972;28;20051;-72
2023/02/05 14:38:49;;;;;;;7.35;1.55;;;;;;;;;;5016564;28;20037;-73
2023/02/05 14:41:29;;;;;;;10.20;1.95;;;;;;;;;;5027446;28;20544;-72
2023/02/05 14:44:19;;;;;;;8.23;1.60;;;;;;;;;;5011937;28;20040;-72
2023/02/05 14:47:16;;;;;;;8.50;1.40;;;;;;;;;;5006950;28;20104;-73
2023/02/05 14:49:43;;;;;;;8.20;1.65;;;;;;;;;;5026199;28;20022;-72
2023/02/05 14:52:25;;;;;;;5.55;1.48;;;;;;;;;;5026533;28;20054;-72
2023/02/05 14:54:59;;;;;;;6.80;1.45;;;;;;;;;;5027541;28;20044;-72
2023/02/05 14:57:45;;;;;;;7.40;2.70;;;;;;;;;;5028913;28;20112;-72
2023/02/05 15:00:26;;;;;;;5.68;1.20;;;;;;;;;;5018651;28;21249;-72
2023/02/05 15:03:03;;;;;;;5.10;1.50;;;;;;;;;;5026385;28;20041;-72
2023/02/05 15:05:47;;;;;;;6.10;1.20;;;;;;;;;;5006891;28;20043;-72
2023/02/05 15:08:21;;;;;;;6.35;1.33;;;;;;;;;;5015740;28;20605;-72
2023/02/05 15:11:04;;;;;;;5.88;1.70;;;;;;;;;;5022877;28;20519;-72
2023/02/05 15:13:31;;;;;;;6.38;1.45;;;;;;;;;;5006839;28;20050;-72